createdAt,value
2017-07-20T00:02:50.304Z,-57
2017-07-20T00:13:01.887Z,-55
2017-07-20T00:22:49.969Z,-57
2017-07-20T00:32:49.702Z,-55
2017-07-20T00:42:49.677Z,-58
2017-07-20T00:52:49.700Z,-57
2017-07-20T01:02:49.756Z,-57
2017-07-20T01:12:49.702Z,-58
2017-07-20T01:22:49.677Z,-58
2017-07-20T01:32:49.712Z,-58
2017-07-20T01:42:49.715Z,-57
2017-07-20T01:52:49.784Z,-56
2017-07-20T02:02:49.764Z,-56
2017-07-20T02:12:49.693Z,-58
2017-07-20T02:22:50.223Z,-59
2017-07-20T02:32:49.742Z,-56
2017-07-20T02:42:49.757Z,-57
2017-07-20T02:52:49.632Z,-55
2017-07-20T03:02:49.730Z,-56
2017-07-20T03:12:49.708Z,-58
2017-07-20T03:22:49.715Z,-57
2017-07-20T03:32:49.671Z,-57
2017-07-20T03:42:49.711Z,-57
2017-07-20T03:52:49.731Z,-57
2017-07-20T04:02:49.745Z,-57
2017-07-20T04:12:49.681Z,-57
2017-07-20T04:22:49.652Z,-54
2017-07-20T04:32:49.698Z,-57
2017-07-20T04:42:49.731Z,-57
2017-07-20T04:52:49.670Z,-56
2017-07-20T05:02:49.744Z,-56
2017-07-20T05:12:49.802Z,-57
2017-07-20T05:22:49.669Z,-57
2017-07-20T05:32:49.723Z,-57
2017-07-20T05:42:49.723Z,-56
2017-07-20T05:52:49.712Z,-57
2017-07-20T06:02:49.816Z,-59
2017-07-20T06:12:49.687Z,-59
2017-07-20T06:22:49.663Z,-60
2017-07-20T06:32:49.744Z,-59
2017-07-20T06:42:49.718Z,-59
2017-07-20T06:52:49.737Z,-60
2017-07-20T07:02:49.733Z,-60
2017-07-20T07:12:49.777Z,-60
2017-07-20T07:22:49.754Z,-60
2017-07-20T07:32:49.736Z,-60
2017-07-20T07:42:49.719Z,-59
2017-07-20T07:52:49.950Z,-61
2017-07-20T08:02:49.787Z,-60
2017-07-20T08:12:49.823Z,-59
2017-07-20T08:22:49.934Z,-65
2017-07-20T08:32:49.743Z,-64
2017-07-20T08:42:49.809Z,-66
2017-07-20T08:52:49.741Z,-65
2017-07-20T09:02:49.780Z,-65
2017-07-20T09:12:49.732Z,-66
2017-07-20T09:22:49.732Z,-66
2017-07-20T09:32:49.758Z,-65
2017-07-20T09:42:49.724Z,-66
2017-07-20T09:52:49.744Z,-66
2017-07-20T10:02:49.742Z,-66
2017-07-20T10:12:49.732Z,-66
2017-07-20T10:22:49.865Z,-66
2017-07-20T10:32:49.726Z,-66
2017-07-20T10:42:49.753Z,-67
2017-07-20T10:52:49.760Z,-66
2017-07-20T11:02:49.812Z,-65
2017-07-20T11:12:49.773Z,-66
2017-07-20T11:22:49.756Z,-66
2017-07-20T11:32:49.756Z,-67
2017-07-20T11:42:49.767Z,-66
2017-07-20T11:52:49.810Z,-66
2017-07-20T12:02:49.784Z,-65
2017-07-20T12:12:49.812Z,-65
2017-07-20T12:22:49.780Z,-66
2017-07-20T12:32:49.735Z,-67
2017-07-20T12:42:49.862Z,-67
2017-07-20T12:52:49.807Z,-65
2017-07-20T13:02:49.857Z,-66
2017-07-20T13:12:49.830Z,-65
2017-07-20T13:22:49.835Z,-65
2017-07-20T13:32:49.839Z,-59
2017-07-20T13:42:50.150Z,-60
2017-07-20T13:52:49.843Z,-58
2017-07-20T14:02:49.779Z,-60
2017-07-20T14:12:49.774Z,-59
2017-07-20T14:22:49.831Z,-59
2017-07-20T14:32:49.809Z,-59
2017-07-20T14:42:49.892Z,-59
2017-07-20T14:52:49.836Z,-60
2017-07-20T15:02:50.001Z,-60
2017-07-20T15:12:50.163Z,-60
2017-07-20T15:22:49.879Z,-64
2017-07-20T15:32:49.925Z,-66
2017-07-20T15:42:49.816Z,-63
2017-07-20T15:52:49.814Z,-60
2017-07-20T16:02:49.774Z,-61
2017-07-20T16:12:49.914Z,-61
2017-07-20T16:22:49.868Z,-64
2017-07-20T16:32:49.845Z,-63
2017-07-20T16:42:49.837Z,-64
2017-07-20T16:52:49.856Z,-62
2017-07-20T17:02:49.936Z,-64
2017-07-20T17:12:49.918Z,-67
2017-07-20T17:22:49.836Z,-60
2017-07-20T17:32:49.912Z,-62
2017-07-20T17:42:50.196Z,-64
2017-07-20T17:52:49.928Z,-59
2017-07-20T18:02:49.790Z,-60
2017-07-20T18:12:49.898Z,-64
2017-07-20T18:22:49.919Z,-61
2017-07-20T18:32:49.824Z,-63
2017-07-20T18:42:49.869Z,-64
2017-07-20T18:52:49.858Z,-63
2017-07-20T19:02:49.822Z,-62
2017-07-20T19:12:49.885Z,-64
2017-07-20T19:22:49.860Z,-63
2017-07-20T19:32:49.871Z,-63
2017-07-20T19:42:49.935Z,-64
2017-07-20T19:52:49.858Z,-63
2017-07-20T20:02:50.039Z,-63
2017-07-20T20:12:49.919Z,-62
2017-07-20T20:22:49.872Z,-63
2017-07-20T20:32:49.975Z,-65
2017-07-20T20:42:49.936Z,-64
2017-07-20T20:52:49.886Z,-65
2017-07-20T21:02:49.956Z,-61
2017-07-20T21:12:49.945Z,-62
2017-07-20T21:22:49.980Z,-64
2017-07-20T21:32:49.928Z,-63
2017-07-20T21:42:49.863Z,-63
2017-07-20T21:52:49.899Z,-63
2017-07-20T22:02:49.852Z,-61
2017-07-20T22:12:49.914Z,-59
2017-07-20T22:22:49.853Z,-58
2017-07-20T22:32:49.966Z,-59
2017-07-20T22:42:50.019Z,-59
2017-07-20T22:52:50.011Z,-58
2017-07-20T23:02:49.829Z,-59
2017-07-20T23:12:50.070Z,-59
2017-07-20T23:22:49.945Z,-58
2017-07-20T23:32:49.851Z,-58
2017-07-20T23:42:49.848Z,-59
2017-07-20T23:52:49.840Z,-58
